Race Result

Timberlake 5K & 1/2 Marathon

at corner of Lewis Turner, Ft Walton Beach, FL 32547
3.1 miles
Place Name Age Sex Age Group Event Time Pace
1 Martin Novak 36 M Overall Male R 00:19:09 06:10:00
2 Will Armbruster 13 M 1M10-14 R 00:20:25 06:35:00
3 Felix Paulino 56 M Male Masters R 00:20:32 06:37:00
4 Chad St Aubin 48 M 1M45-49 R 00:20:44 06:41:00
5 Rick Leonardi 55 M Male G/M R 00:20:51 06:43:00
6 William Gibson 14 M 2M10-14 R 00:20:52 06:43:00
7 Tim Boomer Sullivan 58 M 1M55-59 R 00:20:56 06:45:00
8 Karl Denninger 54 M 1M50-54 R 00:20:57 06:45:00
9 Rob Crist 52 M 2M50-54 R 00:21:15 06:51:00
10 Kelly Wild 53 F Overall Female R 00:21:19 06:52:00
11 Tim Dreyer 54 M 3M50-54 R 00:21:37 06:58:00
12 Kayla Siebert 16 F 1F15-19 R 00:21:41 06:59:00
13 Jeff Harris 52 M R 00:22:05 07:07:00
14 David Griffin 55 M 2M55-59 R 00:22:32 07:16:00
15 Mike Superman Million 62 M 1M60-64 R 00:22:47 07:20:00
16 Evan Davis 14 M 3M10-14 R 00:23:09 07:28:00
17 Mark Flynn 69 M 1M65-69 R 00:23:22 07:32:00
18 Dale Eiriksson 61 M 2M60-64 R 00:23:38 07:37:00
19 John Covington 62 M 3M60-64 R 00:23:45 07:39:00
20 Tiffany Plunkett 43 F Female Masters R 00:24:32 07:54:00
21 Jennifer Tomasello 37 F 1F35-39 R 00:24:36 07:56:00
22 Amy Wells 44 F 1F40-44 R 00:25:02 08:04:00
23 Charles McKenzie 46 M 2M45-49 R 00:25:07 08:06:00
24 Joe Walker 72 M 1M70-74 R 00:25:14 08:08:00
25 Toni Watters 32 F 1F30-34 R 00:26:14 08:27:00
26 Velina Sweatt 55 F Female G/M R 00:26:18 08:29:00
27 Keith Westphal 57 M 3M55-59 R 00:26:26 08:31:00
28 Nadine Lawrence 54 F 1F50-54 R 00:26:29 08:32:00
29 Connie West 58 F 1F55-59 R 00:27:01 08:42:00
30 Caroline Levesque 56 F 2F55-59 R 00:27:07 08:44:00
31 Jerry Williams 62 M R 00:27:24 08:50:00
32 Elijah London 10 M R 00:27:26 08:50:00
33 Julia Stanley 8 F 1F0-9 R 00:27:26 08:50:00
34 Isabel Stanley 10 F 1F10-14 R 00:27:30 08:52:00
35 Sylvia Smith 60 F 1F60-64 R 00:27:38 08:54:00
36 Leah Smith 23 F 1F20-24 R 00:27:40 08:55:00
37 Debbie Mast 54 F 2F50-54 R 00:27:43 08:56:00
38 Jackie Dujkovic 42 F 2F40-44 R 00:28:10 09:05:00
39 Rachel Kimbrell 36 F 2F35-39 R 00:28:18 09:07:00
40 Dave Miller 67 M 2M65-69 R 00:28:28 09:10:00
41 Paul Fisher 38 M 1M35-39 R 00:29:08 09:23:00
42 Anna Klepser 41 F 3F40-44 R 00:29:31 09:31:00
43 Michele Polek 36 F 3F35-39 R 00:29:41 09:34:00
44 Debbie Simmons 59 F 3F55-59 R 00:29:46 09:36:00
45 Ken Smalewich 56 M Overall Male W 00:29:53 09:38:00
46 John Sanderson 47 M 3M45-49 R 00:30:18 09:46:00
47 Robert Simmons 60 M R 00:31:32 10:10:00
48 Bill Nation 56 M R 00:31:41 10:13:00
49 Lisa Gamon 58 F R 00:31:49 10:15:00
50 Charis Maines 36 F R 00:32:06 10:21:00
51 Denise Pifer 52 F 3F50-54 R 00:32:11 10:22:00
52 Cadence Garza 6 F 2F0-9 R 00:32:30 10:29:00
53 Emilio Garza 46 M R 00:32:30 10:29:00
54 Nancy Mann 71 F 1F70-74 R 00:32:40 10:32:00
55 Sharon Hines 54 F R 00:33:32 10:49:00
56 Elizabeth Davis 37 F R 00:33:44 10:52:00
57 Greg Noble 53 M 2 Male W 00:34:12 11:01:00
58 Ava Suydan 53 F Overall Female W 00:34:20 11:04:00
59 Tammi Cox 49 F 1F45-49 R 00:34:41 11:11:00
60 Trey Horton 54 M R 00:35:00 11:17:00
61 Joan Forman 75 F 1F75 R 00:35:17 11:22:00
62 Jim Hurst 51 M 3 Male W 00:35:24 11:25:00
63 Charlie Horton 27 M 1M25-29 R 00:35:29 11:26:00
64 Alyson Garza 39 F R 00:36:08 11:39:00
65 Melissa Stephens 44 F R 00:36:08 11:39:00
66 Lesa Williams 60 F 2F60-64 R 00:36:24 11:44:00
67 Jenny Bohn 26 F 1F25-29 R 00:37:25 12:04:00
68 Jan Bohn 31 M 1M30-34 R 00:37:25 12:04:00
69 Chip Chamberlain 68 M 4 Male W 00:37:35 12:07:00
70 Domonique Shelton 16 F 2F15-19 R 00:37:46 12:10:00
71 Rhonda Westphal 57 F R 00:37:57 12:14:00
72 Tina Engle 45 F 2 Female W 00:38:33 12:26:00
73 Scott Nance 54 M 5 Male W 00:39:22 12:41:00
74 Bill Larsen 75 M 1M75 R 00:39:28 12:43:00
75 Ana Leurinda 57 F R 00:39:44 12:49:00
76 Sandra Bernier 56 F R 00:40:47 13:09:00
77 Niki McMahon 64 F 3 Female W 00:42:13 13:37:00
78 Bob NGB Sciretta 73 M 6 Male W 00:43:21 13:59:00
79 Michele Shelton 47 F 2F45-49 R 00:43:55 14:10:00
80 Mary Rominger 65 F 1F65-69 R 00:43:58 14:10:00
81 Jim Frydrychowicz 71 M 2M70-74 R 00:44:00 14:11:00
82 Betty Frydrychowicz 77 F 2F75 R 00:44:56 14:29:00
83 Bonnie London 65 F 4 Female W 00:47:10 15:12:00
84 Jennifer Yeager 35 F R 00:47:10 15:12:00
85 Michael Makara 54 M R 00:47:18 15:15:00
86 Debra Brandon 59 F 5 Female W 00:47:38 15:21:00
87 Nicole Leurinda 19 F 3F15-19 R 00:47:39 15:22:00
88 Ryan King 30 M R 00:52:11 16:50:00
89 Leo Weeks 80 M W 00:52:14 16:50:00
90 James Burton 82 M R 00:53:20 17:12:00
91 Jim Cookman 77 M R 00:53:24 17:13:00
92 Janet Walker 59 F W 00:54:46 17:40:00
93 Steve Cookman 50 M R 00:54:49 17:40:00
94 Trina McCullough 49 F R 00:56:27 18:12:00
95 Soli Rodriguez 41 F R 01:04:54 20:56:00
96 Lean Reeves 29 F R 01:04:56 20:56:00
97 Christian Shelton 11 M R 01:10:28 22:43:00
98 John Dreyer 12 M R 01:10:28 22:43:00
13.1 miles
Place Name Age Sex Age Group Event Time Pace
1 Brandon Rouse 33 M Overall Male R 01:24:05 06:25:00
2 Steve Harris 37 M 1M35-39 R 01:27:08 06:39:00
3 Aaron Thomas 32 M 1M30-34 R 01:30:51 06:56:00
4 Bob Walker 46 M Male Masters R 01:34:34 07:13:00
5 Robert Flynn 37 M 2M35-39 R 01:34:56 07:14:00
6 Ken Lawrence 50 M Male G/M R 01:34:58 07:14:00
7 Challen Hyman 23 M 1M20-24 R 01:35:26 07:17:00
8 Scott McNey 55 M 1M55-59 R 01:36:12 07:20:00
9 John Watts 47 M 1M45-49 R 01:36:33 07:22:00
10 Brian Halmaghi 58 M 2M55-59 R 01:36:41 07:22:00
11 Erik Yaekel 45 M 2M45-49 R 01:37:35 07:26:00
12 Frank McKenzie 53 M 1M50-54 R 01:38:00 07:28:00
13 Brigid Gutierrez 25 F Overall Female R 01:38:34 07:31:00
14 Raul Sotelo 38 M 3M35-39 R 01:39:29 07:35:00
15 Jared Fisher 15 M 1M15-19 R 01:40:26 07:40:00
16 Robin Jordan 34 F 1F30-34 R 01:40:45 07:41:00
17 Enrique Delagarza 35 M R 01:41:16 07:43:00
18 Andrew Zerick 26 M 1M25-29 R 01:43:03 07:51:00
19 Erik Williams 37 M R 01:44:32 07:58:00
20 Kenneth Webster 26 M 2M25-29 R 01:44:34 07:58:00
21 John Ebbrecht 48 M 3M45-49 R 01:44:44 07:59:00
22 Sarah Stolp 32 F 2F30-34 R 01:45:19 08:02:00
23 Donna Harris 45 F Female Masters R 01:46:38 08:08:00
24 Charles Duby 47 M R 01:47:46 08:13:00
25 Jeff Reaves 32 M 2M30-34 R 01:48:35 08:17:00
26 Hank Twistmeyer 15 M 2M15-19 R 01:50:01 08:23:00
27 Christopher Grossmann 49 M R 01:50:02 08:23:00
28 Shawn Matney 42 M 1M40-44 R 01:50:13 08:24:00
29 Andrew Lima 30 M 3M30-34 R 01:50:18 08:25:00
30 Wayne Bartlett 56 M 3M55-59 R 01:52:46 08:36:00
31 Erin Jenkins 36 F 1F35-39 R 01:53:18 08:38:00
32 Barbara Lesko 23 F 1F20-24 R 01:53:37 08:40:00
33 Joseph Jasper 29 M 3M25-29 R 01:53:50 08:41:00
34 Mike Crook 51 M 2M50-54 R 01:54:16 08:43:00
35 Dana Dalessandro 39 M R 01:54:29 08:44:00
36 Susan McKenzie 51 F Female G/M R 01:54:59 08:46:00
37 Dustin Kurtz 33 M R 01:55:19 08:48:00
38 Ian Worth 44 M 2M40-44 R 01:56:24 08:53:00
39 Angila Walker 44 F 1F40-44 R 01:57:08 08:56:00
40 Erin Perryman 23 F 2F20-24 R 01:58:28 09:02:00
41 Kurtis Miller 22 M 2M20-24 R 01:58:37 09:03:00
42 Jim Cardow 64 M 1M60-64 R 01:59:50 09:08:00
43 Charles Newsom 61 M 2M60-64 R 02:00:00 09:09:00
44 Rick Ballard 63 M 3M60-64 R 02:01:15 09:15:00
45 Mel Echeverriq 28 M R 02:03:10 09:24:00
46 Sean Wild 17 M 3M15-19 R 02:03:18 09:24:00
47 Nick Kern 69 M 1M65-69 R 02:03:42 09:26:00
48 Valerie Hein 50 F 1F50-54 R 02:04:06 09:28:00
49 Deborah Hurst 53 F 2F50-54 R 02:06:22 09:38:00
50 Leonard Ooten 35 M R 02:07:55 09:45:00
51 Bill Christie 70 M 1M70-74 R 02:09:24 09:52:00
52 Diana Cole 42 F 2F40-44 R 02:09:28 09:52:00
53 Johnathan Collins 21 M 3M20-24 R 02:11:15 10:01:00
54 Carley Hehdel 26 F 1F25-29 R 02:11:17 10:01:00
55 Anna Francis 28 F 2F25-29 R 02:11:18 10:01:00
56 Geraldine Lewis 26 F 3F25-29 R 02:11:25 10:01:00
57 Levi McNeely 27 M R 02:12:41 10:07:00
58 Eric Larsen 17 M R 02:13:02 10:09:00
59 Jennie Trevino 36 F 2F35-39 R 02:13:37 10:11:00
60 Kathleen Goebel 42 F 3F40-44 R 02:15:04 10:18:00
61 Alan Payne 48 M R 02:16:38 10:25:00
62 Dana Sullivan 57 F 1F55-59 R 02:17:24 10:29:00
63 Joshua Lee 27 M R 02:18:29 10:34:00
64 Dave Clement 41 M 3M40-44 R 02:19:45 10:40:00
65 Amanda Crandall 28 F R 02:20:18 10:42:00
66 William Dunn 49 M R 02:21:46 10:49:00
67 Martha Ramos 56 F 2F55-59 R 02:21:50 10:49:00
68 Randy James 48 M R 02:23:43 10:58:00
69 Amber Morgan 40 F R 02:23:56 10:59:00
70 John Huhn 49 M R 02:24:19 11:00:00
71 Jeremiah Morgan 40 M R 02:24:53 11:03:00
72 Filicity Watts 36 F 3F35-39 R 02:24:53 11:03:00
73 Chad Angel 41 M R 02:24:57 11:03:00
74 Megan Schwinghammer 24 F 3F20-24 R 02:25:36 11:06:00
75 Amanda Colwell 40 F R 02:25:37 11:06:00
76 Aubrey Summers 32 F 3F30-34 R 02:25:44 11:07:00
77 Steve Leverton 55 M R 02:27:03 11:13:00
78 Marti Gaylord 51 F 3F50-54 R 02:27:43 11:16:00
79 Jacqueline Sartz 51 F R 02:30:27 11:29:00
80 Jessica Zamora 37 F R 02:30:46 11:30:00
81 Roy Larsen 56 M R 02:32:20 11:37:00
82 Laurie Husaby 53 F R 02:33:27 11:42:00
83 A Gee 26 F R 02:34:20 11:46:00
84 Kome Eteuatia 25 M R 02:35:30 11:52:00
85 Cristian Gaytan 62 M R 02:36:15 11:55:00
86 Chris Stanley 37 M R 02:36:20 11:56:00
87 Gerard Menze 62 M R 02:38:13 12:04:00
88 T J Matney 12 M 1M10-14 R 02:39:03 12:08:00
89 Larry Perry 52 M 3M50-54 R 02:39:57 12:12:00
90 Terri Worth 49 F 1F45-49 R 02:40:49 12:16:00
91 Jesse Plantz 26 M R 02:42:37 12:24:00
92 Sabrina Weber 35 F R 02:42:53 12:26:00
93 Lauren S Hendrix 12 F 1F10-14 R 02:52:19 13:09:00
94 Viviane Prybille 57 F R 03:19:36 15:14:00
95 Heather Hendrix 36 F R 03:19:36 15:14:00
96 Kristin Goergen 42 F R 03:30:09 16:02:00
97 Kimberly Hathcock 46 F R 03:33:09 16:16:00
98 Nancy Cummings 61 F 1F60-64 R 03:56:39 18:03:00
99 Mary Newcomer 73 F 1F70-74 R 04:16:55 19:36:00

Contact Information Brian McMahon president@nwftc.com 850-651-8958